Lishi, China
Current Conditions -  °F | °C
As of 4:30 PM on Sunday 28 Dec 2014 (Local Time) from ZBYN Reporting Station
Clear Clear  
Wind Chill: 37°   Ceiling: Unl
Heat Index: 41°   Visibility: 6mi
Dew Point:   Wind: 7mph
Humidity: 19%   Direction: 220°SW
Pressure: 30.06"   Gusts: NA
Location:  37.5°N, 111.1°E
Report Text: ZBYN 280830Z 22003MPS CAVOK 05/M17 Q1018 NOSIG
Loading
Personal Weather Stations






























Interactive Weather Map New forecast layout! Learn more

10-Day Weather Forecast

Advertisements
Track Severe Weather on mobile